createdAt,value
2022-12-25T00:01:15.600Z,101436.22
2022-12-25T00:03:42.901Z,101435.25
2022-12-25T00:06:09.865Z,101442.16
2022-12-25T00:08:38.648Z,101443.97
2022-12-25T00:11:08.816Z,101446.44
2022-12-25T00:13:35.850Z,101446.09
2022-12-25T00:16:06.791Z,101450.41
2022-12-25T00:18:35.109Z,101450.22
2022-12-25T00:21:05.088Z,101451.06
2022-12-25T00:23:33.639Z,101441.38
2022-12-25T00:26:05.157Z,101443.50
2022-12-25T00:28:32.109Z,101445.19
2022-12-25T00:30:59.041Z,101449.63
2022-12-25T00:33:26.292Z,101455.72
2022-12-25T00:36:01.989Z,101456.03
2022-12-25T00:38:28.935Z,101447.13
2022-12-25T00:40:56.317Z,101461.94
2022-12-25T00:43:24.001Z,101466.88
2022-12-25T00:45:57.174Z,101468.84
2022-12-25T00:48:24.940Z,101465.53
2022-12-25T00:50:54.775Z,101470.16
2022-12-25T00:53:24.545Z,101458.94
2022-12-25T00:55:53.239Z,101464.53
2022-12-25T00:58:20.201Z,101455.63
2022-12-25T01:00:48.921Z,101447.91
2022-12-25T01:03:17.111Z,101447.41
2022-12-25T01:05:53.547Z,101447.13
2022-12-25T01:08:20.754Z,101446.44
2022-12-25T01:10:56.069Z,101450.22
2022-12-25T01:13:23.333Z,101451.84
2022-12-25T01:15:52.106Z,101450.88
2022-12-25T01:18:19.672Z,101459.63
2022-12-25T01:20:47.395Z,101472.13
2022-12-25T01:23:14.580Z,101473.69
2022-12-25T01:25:41.806Z,101466.81
2022-12-25T01:28:10.089Z,101470.75
2022-12-25T01:30:37.033Z,101473.41
2022-12-25T01:33:04.171Z,101473.41
2022-12-25T01:35:31.090Z,101473.69
2022-12-25T01:37:58.013Z,101473.69
2022-12-25T01:40:24.945Z,101483.25
2022-12-25T01:42:51.880Z,101485.59
2022-12-25T01:45:41.943Z,101479.66
2022-12-25T01:48:16.004Z,101481.97
2022-12-25T01:50:49.885Z,101479.03
2022-12-25T01:53:17.169Z,101484.94
2022-12-25T01:55:48.921Z,101489.56
2022-12-25T01:58:17.999Z,101488.59
2022-12-25T02:00:46.724Z,101485.28
2022-12-25T02:03:14.139Z,101485.28
2022-12-25T02:05:41.185Z,101483.63
2022-12-25T02:08:11.453Z,101498.91
2022-12-25T02:10:39.124Z,101489.84
2022-12-25T02:13:07.520Z,101484.72
2022-12-25T02:15:46.811Z,101504.28
2022-12-25T02:18:30.329Z,101507.38
2022-12-25T02:21:13.390Z,101503.25
2022-12-25T02:24:29.606Z,101503.56
2022-12-25T02:27:11.044Z,101502.75
2022-12-25T02:29:52.884Z,101492.06
2022-12-25T02:32:30.923Z,101494.84
2022-12-25T02:35:05.678Z,101494.69
2022-12-25T02:37:42.483Z,101486.66
2022-12-25T02:40:16.791Z,101487.44
2022-12-25T02:43:09.669Z,101493.72
2022-12-25T02:46:06.746Z,101489.41
2022-12-25T02:48:59.436Z,101490.25
2022-12-25T02:51:51.426Z,101487.31
2022-12-25T02:54:47.270Z,101505.94
2022-12-25T02:57:37.136Z,101492.81
2022-12-25T03:00:27.674Z,101492.84
2022-12-25T03:03:18.027Z,101492.38
2022-12-25T03:06:05.779Z,101485.97
2022-12-25T03:08:39.694Z,101478.22
2022-12-25T03:11:29.889Z,101472.13
2022-12-25T03:14:21.593Z,101472.31
2022-12-25T03:16:53.763Z,101468.00
2022-12-25T03:20:04.021Z,101475.38
2022-12-25T03:22:51.447Z,101479.97
2022-12-25T03:25:38.329Z,101476.00
2022-12-25T03:28:06.385Z,101464.47
2022-12-25T03:31:03.036Z,101457.00
2022-12-25T03:34:03.330Z,101464.03
2022-12-25T03:36:46.091Z,101473.53
2022-12-25T03:39:43.404Z,101472.69
2022-12-25T03:42:32.914Z,101471.78
2022-12-25T03:45:27.623Z,101471.28
2022-12-25T03:48:15.593Z,101467.97
2022-12-25T03:51:07.722Z,101468.94
2022-12-25T03:54:01.680Z,101458.25
2022-12-25T03:56:50.501Z,101455.63
2022-12-25T03:59:38.953Z,101455.97
2022-12-25T04:02:24.655Z,101447.22
2022-12-25T04:05:10.435Z,101451.16
2022-12-25T04:07:55.884Z,101451.25
2022-12-25T04:10:43.129Z,101444.25
2022-12-25T04:13:28.833Z,101446.88
2022-12-25T04:16:14.818Z,101444.25
2022-12-25T04:19:00.091Z,101434.53
2022-12-25T04:21:46.048Z,101434.53
2022-12-25T04:24:31.417Z,101429.28
2022-12-25T04:27:18.392Z,101432.19
2022-12-25T04:30:03.859Z,101433.47
2022-12-25T04:32:49.624Z,101426.84
2022-12-25T04:35:34.934Z,101416.00
2022-12-25T04:38:01.957Z,101407.59
2022-12-25T04:40:28.904Z,101389.53
2022-12-25T04:42:57.088Z,101388.41
2022-12-25T04:45:24.018Z,101384.78
2022-12-25T04:47:50.911Z,101388.41
2022-12-25T04:50:17.919Z,101385.91
2022-12-25T04:52:44.851Z,101401.19
2022-12-25T04:55:12.051Z,101404.78
2022-12-25T04:57:39.720Z,101400.34
2022-12-25T05:00:09.812Z,101397.59
2022-12-25T05:02:36.871Z,101398.88
2022-12-25T05:05:04.600Z,101382.72
2022-12-25T05:07:32.635Z,101386.03
2022-12-25T05:09:59.508Z,101384.69
2022-12-25T05:12:26.388Z,101378.59
2022-12-25T05:14:53.274Z,101377.25
2022-12-25T05:17:21.434Z,101380.88
2022-12-25T05:19:48.274Z,101375.28
2022-12-25T05:22:15.124Z,101377.78
2022-12-25T05:24:42.059Z,101380.25
2022-12-25T05:27:08.987Z,101376.88
2022-12-25T05:29:35.849Z,101388.72
2022-12-25T05:32:02.877Z,101387.56
2022-12-25T05:34:31.157Z,101386.81
2022-12-25T05:36:58.177Z,101390.50
2022-12-25T05:39:25.074Z,101384.59
2022-12-25T05:41:51.916Z,101378.44
2022-12-25T05:44:18.761Z,101379.75
2022-12-25T05:46:45.663Z,101379.44
2022-12-25T05:49:12.855Z,101373.19
2022-12-25T05:51:41.241Z,101384.38
2022-12-25T05:54:08.254Z,101392.94
2022-12-25T05:56:35.198Z,101375.50
2022-12-25T05:59:02.048Z,101380.59
2022-12-25T06:01:29.338Z,101386.03
2022-12-25T06:03:57.481Z,101387.66
2022-12-25T06:06:25.984Z,101385.72
2022-12-25T06:08:55.686Z,101383.59
2022-12-25T06:11:22.733Z,101379.50
2022-12-25T06:13:50.683Z,101375.41
2022-12-25T06:16:18.439Z,101376.28
2022-12-25T06:18:48.653Z,101378.59
2022-12-25T06:21:16.269Z,101378.78
2022-12-25T06:23:43.897Z,101383.75
2022-12-25T06:26:15.516Z,101385.88
2022-12-25T06:28:42.615Z,101384.44
2022-12-25T06:31:12.465Z,101383.28
2022-12-25T06:33:39.522Z,101371.44
2022-12-25T06:36:09.369Z,101371.28
2022-12-25T06:38:36.410Z,101374.91
2022-12-25T06:41:05.548Z,101368.16
2022-12-25T06:43:34.102Z,101364.38
2022-12-25T06:46:03.760Z,101371.28
2022-12-25T06:48:32.138Z,101357.94
2022-12-25T06:50:59.215Z,101357.63
2022-12-25T06:53:26.399Z,101360.59
2022-12-25T06:55:53.279Z,101368.16
2022-12-25T06:58:20.351Z,101370.78
2022-12-25T07:00:48.553Z,101374.91
2022-12-25T07:03:21.140Z,101383.97
2022-12-25T07:05:48.160Z,101386.94
2022-12-25T07:08:15.099Z,101385.94
2022-12-25T07:10:42.012Z,101383.31
2022-12-25T07:13:08.876Z,101381.69
2022-12-25T07:15:35.819Z,101374.91
2022-12-25T07:18:04.410Z,101367.81
2022-12-25T07:20:31.474Z,101374.94
2022-12-25T07:22:58.358Z,101382.00
2022-12-25T07:25:25.179Z,101373.44
2022-12-25T07:27:52.058Z,101378.06
2022-12-25T07:30:19.124Z,101374.59
2022-12-25T07:32:50.148Z,101366.88
2022-12-25T07:35:18.627Z,101366.38
2022-12-25T07:37:45.573Z,101369.69
2022-12-25T07:40:13.231Z,101357.16
2022-12-25T07:42:41.166Z,101369.66
2022-12-25T07:45:09.275Z,101361.59
2022-12-25T07:47:36.147Z,101361.44
2022-12-25T07:50:03.570Z,101351.34
2022-12-25T07:52:32.765Z,101351.72
2022-12-25T07:55:02.242Z,101349.25
2022-12-25T07:57:29.783Z,101353.03
2022-12-25T07:59:56.886Z,101351.34
2022-12-25T08:02:28.477Z,101350.72
2022-12-25T08:04:55.769Z,101345.09
2022-12-25T08:07:23.375Z,101342.47
2022-12-25T08:09:51.560Z,101355.97
2022-12-25T08:12:18.446Z,101353.84
2022-12-25T08:14:45.319Z,101358.81
2022-12-25T08:17:12.319Z,101356.31
2022-12-25T08:19:39.392Z,101359.47
2022-12-25T08:22:06.541Z,101351.72
2022-12-25T08:24:33.431Z,101356.03
2022-12-25T08:27:01.735Z,101362.59
2022-12-25T08:29:28.918Z,101367.22
2022-12-25T08:31:55.949Z,101376.09
2022-12-25T08:34:23.199Z,101379.41
2022-12-25T08:36:50.107Z,101384.66
2022-12-25T08:39:17.224Z,101385.19
2022-12-25T08:41:44.144Z,101379.06
2022-12-25T08:44:14.539Z,101389.31
2022-12-25T08:46:41.432Z,101393.25
2022-12-25T08:49:08.511Z,101391.09
2022-12-25T08:51:37.111Z,101379.41
2022-12-25T08:54:04.289Z,101374.41
2022-12-25T08:56:31.277Z,101358.25
2022-12-25T08:58:58.206Z,101370.28
2022-12-25T09:01:26.496Z,101366.31
2022-12-25T09:03:53.449Z,101355.94
2022-12-25T09:06:20.348Z,101349.81
2022-12-25T09:08:49.593Z,101352.28
2022-12-25T09:11:19.253Z,101338.75
2022-12-25T09:13:46.954Z,101342.69
2022-12-25T09:16:17.938Z,101353.72
2022-12-25T09:18:46.347Z,101362.63
2022-12-25T09:21:15.943Z,101365.59
2022-12-25T09:23:42.976Z,101390.19
2022-12-25T09:26:13.550Z,101386.25
2022-12-25T09:28:46.572Z,101384.44
2022-12-25T09:31:17.489Z,101387.72
2022-12-25T09:33:45.832Z,101379.63
2022-12-25T09:36:12.812Z,101388.19
2022-12-25T09:38:39.807Z,101390.84
2022-12-25T09:41:16.967Z,101379.47
2022-12-25T09:43:51.199Z,101375.00
2022-12-25T09:46:23.531Z,101363.28
2022-12-25T09:49:04.609Z,101365.47
2022-12-25T09:51:36.776Z,101366.44
2022-12-25T09:54:13.013Z,101360.50
2022-12-25T09:56:39.919Z,101362.81
2022-12-25T09:59:20.538Z,101366.44
2022-12-25T10:02:15.620Z,101356.88
2022-12-25T10:05:05.449Z,101336.56
2022-12-25T10:07:43.818Z,101333.13
2022-12-25T10:10:40.384Z,101335.94
2022-12-25T10:13:21.028Z,101334.44
2022-12-25T10:16:04.099Z,101321.69
2022-12-25T10:19:19.333Z,101319.25
2022-12-25T10:21:51.882Z,101311.66
2022-12-25T10:24:33.781Z,101315.13
2022-12-25T10:27:11.306Z,101314.13
2022-12-25T10:29:39.630Z,101317.63
2022-12-25T10:32:06.490Z,101318.91
2022-12-25T10:34:33.646Z,101326.31
2022-12-25T10:37:02.222Z,101327.13
2022-12-25T10:39:29.197Z,101323.47
2022-12-25T10:42:27.372Z,101309.63
2022-12-25T10:44:57.658Z,101304.66
2022-12-25T10:47:28.427Z,101297.09
2022-12-25T10:49:56.647Z,101287.00
2022-12-25T10:52:28.053Z,101285.84
2022-12-25T10:54:55.925Z,101275.94
2022-12-25T10:57:26.265Z,101280.19
2022-12-25T10:59:56.444Z,101278.88
2022-12-25T11:02:27.873Z,101286.47
2022-12-25T11:05:03.878Z,101286.28
2022-12-25T11:07:34.834Z,101287.41
2022-12-25T11:10:15.070Z,101283.41
2022-12-25T11:12:45.848Z,101272.50
2022-12-25T11:15:45.917Z,101286.69
2022-12-25T11:18:22.022Z,101286.34
2022-12-25T11:20:51.001Z,101299.84
2022-12-25T11:23:21.849Z,101289.75
2022-12-25T11:25:56.173Z,101277.19
2022-12-25T11:28:24.549Z,101277.66
2022-12-25T11:30:59.360Z,101286.41
2022-12-25T11:33:35.413Z,101296.81
2022-12-25T11:36:12.594Z,101295.81
2022-12-25T11:38:40.809Z,101290.16
2022-12-25T11:41:12.534Z,101281.25
2022-12-25T11:43:46.688Z,101280.06
2022-12-25T11:46:20.629Z,101273.44
2022-12-25T11:48:56.600Z,101265.81
2022-12-25T11:51:29.991Z,101265.09
2022-12-25T11:54:05.508Z,101256.63
2022-12-25T11:56:33.090Z,101239.97
2022-12-25T11:59:11.517Z,101246.25
2022-12-25T12:01:47.011Z,101237.03
2022-12-25T12:04:27.429Z,101214.09
2022-12-25T12:07:05.699Z,101209.78
2022-12-25T12:09:47.351Z,101222.00
2022-12-25T12:12:22.029Z,101214.72
2022-12-25T12:15:01.322Z,101212.06
2022-12-25T12:17:28.512Z,101204.44
2022-12-25T12:19:55.490Z,101197.31
2022-12-25T12:22:25.969Z,101183.34
2022-12-25T12:25:04.476Z,101178.81
2022-12-25T12:27:36.518Z,101175.47
2022-12-25T12:30:06.028Z,101166.56
2022-12-25T12:32:41.373Z,101174.16
2022-12-25T12:35:18.182Z,101164.22
2022-12-25T12:37:51.016Z,101162.84
2022-12-25T12:40:29.165Z,101151.28
2022-12-25T12:42:56.410Z,101140.72
2022-12-25T12:45:29.696Z,101133.78
2022-12-25T12:47:57.634Z,101140.06
2022-12-25T12:50:34.787Z,101129.88
2022-12-25T12:53:26.867Z,101120.66
2022-12-25T12:55:55.550Z,101117.31
2022-12-25T12:58:33.055Z,101120.34
2022-12-25T13:01:17.074Z,101110.13
2022-12-25T13:04:06.537Z,101111.50
2022-12-25T13:06:40.948Z,101116.59
2022-12-25T13:09:35.461Z,101113.13
2022-12-25T13:12:08.137Z,101120.59
2022-12-25T13:14:37.848Z,101114.78
2022-12-25T13:17:08.636Z,101121.34
2022-12-25T13:19:37.842Z,101113.06
2022-12-25T13:22:06.587Z,101113.88
2022-12-25T13:24:36.407Z,101118.19
2022-12-25T13:27:22.809Z,101106.75
2022-12-25T13:29:49.911Z,101111.72
2022-12-25T13:32:23.957Z,101109.72
2022-12-25T13:34:52.621Z,101100.59
2022-12-25T13:37:23.663Z,101105.72
2022-12-25T13:39:54.547Z,101113.66
2022-12-25T13:42:26.352Z,101086.19
2022-12-25T13:44:57.479Z,101087.84
2022-12-25T13:47:29.682Z,101095.59
2022-12-25T13:49:58.886Z,101082.19
2022-12-25T13:52:34.496Z,101082.19
2022-12-25T13:55:04.606Z,101075.72
2022-12-25T13:57:36.730Z,101076.88
2022-12-25T14:00:16.124Z,101059.06
2022-12-25T14:02:43.205Z,101055.38
2022-12-25T14:05:28.543Z,101056.78
2022-12-25T14:07:58.278Z,101056.41
2022-12-25T14:10:29.338Z,101057.41
2022-12-25T14:13:03.429Z,101057.41
2022-12-25T14:15:33.143Z,101056.22
2022-12-25T14:18:00.646Z,101053.38
2022-12-25T14:20:30.681Z,101050.56
2022-12-25T14:23:00.599Z,101053.22
2022-12-25T14:25:33.234Z,101049.09
2022-12-25T14:28:08.301Z,101046.81
2022-12-25T14:30:36.416Z,101044.47
2022-12-25T14:33:03.676Z,101044.09
2022-12-25T14:35:31.024Z,101033.13
2022-12-25T14:38:00.347Z,101042.53
2022-12-25T14:40:30.962Z,101048.28
2022-12-25T14:43:01.829Z,101032.84
2022-12-25T14:45:32.347Z,101034.50
2022-12-25T14:48:04.087Z,101029.19
2022-12-25T14:50:37.294Z,101032.03
2022-12-25T14:53:16.510Z,101036.50
2022-12-25T14:55:49.023Z,101034.03
2022-12-25T14:58:25.187Z,101042.97
2022-12-25T15:00:56.459Z,101034.03
2022-12-25T15:03:28.602Z,101032.41
2022-12-25T15:06:01.307Z,101029.75
2022-12-25T15:08:32.333Z,101011.97
2022-12-25T15:11:02.128Z,101018.44
2022-12-25T15:13:32.205Z,101012.72
2022-12-25T15:16:06.254Z,101019.22
2022-12-25T15:18:40.129Z,101008.00
2022-12-25T15:21:15.546Z,101008.16
2022-12-25T15:23:42.529Z,101016.75
2022-12-25T15:26:13.095Z,101016.38
2022-12-25T15:28:41.739Z,101022.13
2022-12-25T15:31:21.957Z,101013.16
2022-12-25T15:33:49.622Z,101002.69
2022-12-25T15:36:16.583Z,100994.50
2022-12-25T15:38:43.778Z,101004.59
2022-12-25T15:41:34.215Z,101003.00
2022-12-25T15:44:03.440Z,100991.22
2022-12-25T15:46:30.877Z,100990.84
2022-12-25T15:48:57.864Z,100984.75
2022-12-25T15:51:24.735Z,100975.38
2022-12-25T15:53:52.046Z,100963.13
2022-12-25T15:56:19.562Z,100969.44
2022-12-25T15:58:46.445Z,100970.44
2022-12-25T16:01:16.402Z,100954.59
2022-12-25T16:03:44.118Z,100958.88
2022-12-25T16:06:13.315Z,100943.53
2022-12-25T16:08:40.850Z,100943.13
2022-12-25T16:11:08.973Z,100949.41
2022-12-25T16:13:36.421Z,100939.84
2022-12-25T16:16:04.980Z,100940.28
2022-12-25T16:18:33.471Z,100932.19
2022-12-25T16:21:00.456Z,100929.13
2022-12-25T16:23:27.430Z,100921.88
2022-12-25T16:25:54.345Z,100923.13
2022-12-25T16:28:21.222Z,100921.72
2022-12-25T16:30:48.342Z,100919.34
2022-12-25T16:33:15.461Z,100924.06
2022-12-25T16:35:44.047Z,100919.84
2022-12-25T16:38:11.657Z,100921.72
2022-12-25T16:40:38.748Z,100924.44
2022-12-25T16:43:05.711Z,100913.31
2022-12-25T16:45:38.310Z,100913.53
2022-12-25T16:48:05.938Z,100921.72
2022-12-25T16:50:34.093Z,100915.06
2022-12-25T16:53:02.431Z,100908.75
2022-12-25T16:55:30.373Z,100927.88
2022-12-25T16:57:57.559Z,100925.25
2022-12-25T17:00:24.879Z,100928.53
2022-12-25T17:02:52.457Z,100923.88
2022-12-25T17:05:19.493Z,100917.56
2022-12-25T17:07:46.943Z,100914.91
2022-12-25T17:10:15.159Z,100909.00
2022-12-25T17:12:42.403Z,100905.34
2022-12-25T17:15:10.058Z,100893.72
2022-12-25T17:17:36.951Z,100888.44
2022-12-25T17:20:05.422Z,100883.59
2022-12-25T17:22:32.310Z,100882.41
2022-12-25T17:24:59.201Z,100875.09
2022-12-25T17:27:27.549Z,100876.69
2022-12-25T17:29:54.905Z,100867.75
2022-12-25T17:32:21.807Z,100857.56
2022-12-25T17:34:48.822Z,100869.78
2022-12-25T17:37:15.667Z,100867.97
2022-12-25T17:39:42.582Z,100858.00
2022-12-25T17:42:09.479Z,100862.09
2022-12-25T17:44:37.656Z,100860.44
2022-12-25T17:47:04.736Z,100844.94
2022-12-25T17:49:31.706Z,100849.44
2022-12-25T17:51:58.577Z,100842.50
2022-12-25T17:54:25.445Z,100849.44
2022-12-25T17:56:52.325Z,100849.03
2022-12-25T17:59:19.336Z,100833.59
2022-12-25T18:01:48.927Z,100838.50
2022-12-25T18:04:16.007Z,100835.44
2022-12-25T18:06:43.038Z,100843.00
2022-12-25T18:09:11.520Z,100841.81
2022-12-25T18:11:41.128Z,100832.44
2022-12-25T18:14:13.231Z,100827.97
2022-12-25T18:16:43.773Z,100825.34
2022-12-25T18:19:15.043Z,100815.34
2022-12-25T18:21:42.009Z,100790.50
2022-12-25T18:24:09.797Z,100779.06
2022-12-25T18:26:37.002Z,100796.53
2022-12-25T18:29:04.295Z,100798.56
2022-12-25T18:31:31.384Z,100801.84
2022-12-25T18:33:59.781Z,100806.75
2022-12-25T18:36:30.062Z,100806.34
2022-12-25T18:38:58.158Z,100791.72
2022-12-25T18:41:27.898Z,100803.53
2022-12-25T18:43:55.802Z,100802.31
2022-12-25T18:46:25.269Z,100807.25
2022-12-25T18:48:54.413Z,100804.38
2022-12-25T18:51:21.437Z,100802.34
2022-12-25T18:53:49.680Z,100796.69
2022-12-25T18:56:18.323Z,100785.91
2022-12-25T18:58:46.484Z,100787.34
2022-12-25T19:01:17.111Z,100784.50
2022-12-25T19:03:45.880Z,100778.19
2022-12-25T19:06:18.697Z,100781.66
2022-12-25T19:08:46.501Z,100778.81
2022-12-25T19:11:15.625Z,100779.63
2022-12-25T19:13:42.875Z,100780.44
2022-12-25T19:16:10.323Z,100785.53
2022-12-25T19:18:37.519Z,100786.16
2022-12-25T19:21:08.370Z,100778.41
2022-12-25T19:23:37.653Z,100766.00
2022-12-25T19:26:05.872Z,100750.50
2022-12-25T19:28:34.826Z,100764.94
2022-12-25T19:31:03.475Z,100760.47
2022-12-25T19:33:31.872Z,100765.78
2022-12-25T19:36:00.578Z,100767.38
2022-12-25T19:38:27.906Z,100772.69
2022-12-25T19:41:01.082Z,100769.03
2022-12-25T19:43:29.445Z,100773.31
2022-12-25T19:45:58.369Z,100775.38
2022-12-25T19:48:25.786Z,100781.06
2022-12-25T19:50:52.854Z,100778.88
2022-12-25T19:53:23.396Z,100778.03
2022-12-25T19:55:52.178Z,100779.03
2022-12-25T19:58:19.190Z,100775.78
2022-12-25T20:00:58.346Z,100775.78
2022-12-25T20:03:25.854Z,100771.09
2022-12-25T20:05:53.006Z,100771.09
2022-12-25T20:08:19.965Z,100770.09
2022-12-25T20:10:46.858Z,100775.19
2022-12-25T20:13:13.767Z,100770.72
2022-12-25T20:15:41.116Z,100775.00
2022-12-25T20:18:09.338Z,100773.16
2022-12-25T20:20:36.309Z,100769.88
2022-12-25T20:23:03.545Z,100770.50
2022-12-25T20:25:30.420Z,100772.34
2022-12-25T20:27:57.827Z,100770.72
2022-12-25T20:30:24.862Z,100772.53
2022-12-25T20:32:52.425Z,100765.41
2022-12-25T20:35:20.685Z,100754.81
2022-12-25T20:37:47.569Z,100759.50
2022-12-25T20:40:14.605Z,100763.78
2022-12-25T20:42:43.123Z,100763.78
2022-12-25T20:45:12.425Z,100767.44
2022-12-25T20:47:39.312Z,100769.47
2022-12-25T20:50:07.981Z,100765.00
2022-12-25T20:52:36.208Z,100764.19
2022-12-25T20:55:03.525Z,100755.63
2022-12-25T20:57:30.572Z,100755.19
2022-12-25T20:59:57.537Z,100766.59
2022-12-25T21:02:35.423Z,100756.84
2022-12-25T21:05:03.148Z,100753.56
2022-12-25T21:07:30.159Z,100752.31
2022-12-25T21:09:59.251Z,100764.75
2022-12-25T21:12:26.308Z,100759.44
2022-12-25T21:14:53.185Z,100767.38
2022-12-25T21:17:20.175Z,100768.22
2022-12-25T21:19:47.157Z,100759.44
2022-12-25T21:22:14.303Z,100777.59
2022-12-25T21:24:41.156Z,100773.94
2022-12-25T21:27:09.453Z,100777.19
2022-12-25T21:29:36.598Z,100772.53
2022-12-25T21:32:22.174Z,100763.34
2022-12-25T21:34:49.024Z,100782.72
2022-12-25T21:37:16.021Z,100779.88
2022-12-25T21:39:42.908Z,100767.44
2022-12-25T21:42:11.272Z,100770.72
2022-12-25T21:44:38.301Z,100760.09
2022-12-25T21:47:05.241Z,100762.75
2022-12-25T21:49:50.723Z,100767.44
2022-12-25T21:52:18.486Z,100769.47
2022-12-25T21:54:45.568Z,100768.66
2022-12-25T21:57:13.934Z,100770.69
2022-12-25T21:59:40.796Z,100767.84
2022-12-25T22:02:11.303Z,100768.44
2022-12-25T22:04:38.941Z,100773.56
2022-12-25T22:07:17.834Z,100772.75
2022-12-25T22:09:46.515Z,100765.78
2022-12-25T22:12:34.962Z,100780.69
2022-12-25T22:15:05.950Z,100780.06
2022-12-25T22:17:54.821Z,100777.44
2022-12-25T22:20:25.294Z,100783.72
2022-12-25T22:22:52.992Z,100775.38
2022-12-25T22:25:20.596Z,100781.69
2022-12-25T22:27:49.517Z,100778.88
2022-12-25T22:30:19.965Z,100784.97
2022-12-25T22:32:47.459Z,100783.34
2022-12-25T22:35:14.902Z,100785.38
2022-12-25T22:37:43.381Z,100789.03
2022-12-25T22:40:14.418Z,100782.09
2022-12-25T22:42:42.046Z,100791.06
2022-12-25T22:45:12.232Z,100779.63
2022-12-25T22:47:39.285Z,100775.16
2022-12-25T22:50:07.188Z,100791.88
2022-12-25T22:52:34.137Z,100795.53
2022-12-25T22:55:02.277Z,100798.38
2022-12-25T22:57:29.300Z,100798.78
2022-12-25T22:59:56.163Z,100802.47
2022-12-25T23:02:24.596Z,100794.50
2022-12-25T23:04:51.555Z,100790.22
2022-12-25T23:07:18.813Z,100788.56
2022-12-25T23:09:45.857Z,100797.53
2022-12-25T23:12:32.856Z,100789.81
2022-12-25T23:15:00.008Z,100791.03
2022-12-25T23:17:46.822Z,100781.63
2022-12-25T23:20:33.393Z,100776.50
2022-12-25T23:23:19.176Z,100776.50
2022-12-25T23:26:04.372Z,100760.81
2022-12-25T23:28:50.192Z,100764.47
2022-12-25T23:31:18.032Z,100781.16
2022-12-25T23:33:46.296Z,100779.13
2022-12-25T23:36:13.233Z,100781.00
2022-12-25T23:38:40.086Z,100785.47
2022-12-25T23:41:07.877Z,100776.09
2022-12-25T23:43:34.757Z,100773.41
2022-12-25T23:46:01.700Z,100767.44
2022-12-25T23:48:28.648Z,100769.47
2022-12-25T23:50:56.948Z,100790.41
2022-12-25T23:53:24.991Z,100807.28
2022-12-25T23:55:55.868Z,100809.53
2022-12-25T23:58:23.018Z,100805.06
